sensor_id;sensor_type;location;lat;lon;timestamp;P1;durP1;ratioP1;P2;durP2;ratioP2
22287;SDS011;11312;51.464;6.968;2023-02-23T00:03:46;11.85;;;4.70;;
22287;SDS011;11312;51.464;6.968;2023-02-23T00:06:13;11.23;;;4.28;;
22287;SDS011;11312;51.464;6.968;2023-02-23T00:08:39;10.57;;;3.53;;
22287;SDS011;11312;51.464;6.968;2023-02-23T00:11:05;7.68;;;3.13;;
22287;SDS011;11312;51.464;6.968;2023-02-23T00:13:33;9.50;;;4.05;;
22287;SDS011;11312;51.464;6.968;2023-02-23T00:16:11;11.80;;;4.38;;
22287;SDS011;11312;51.464;6.968;2023-02-23T00:18:57;10.88;;;4.70;;
22287;SDS011;11312;51.464;6.968;2023-02-23T00:21:31;9.30;;;3.38;;
22287;SDS011;11312;51.464;6.968;2023-02-23T00:24:04;6.78;;;3.03;;
22287;SDS011;11312;51.464;6.968;2023-02-23T00:26:36;10.02;;;3.80;;
22287;SDS011;11312;51.464;6.968;2023-02-23T00:29:04;9.35;;;3.38;;
22287;SDS011;11312;51.464;6.968;2023-02-23T00:31:36;9.45;;;4.50;;
22287;SDS011;11312;51.464;6.968;2023-02-23T00:34:02;9.70;;;3.85;;
22287;SDS011;11312;51.464;6.968;2023-02-23T00:36:30;7.43;;;3.15;;
22287;SDS011;11312;51.464;6.968;2023-02-23T00:38:58;7.78;;;2.97;;
22287;SDS011;11312;51.464;6.968;2023-02-23T00:41:25;10.75;;;4.25;;
22287;SDS011;11312;51.464;6.968;2023-02-23T00:43:55;8.75;;;3.70;;
22287;SDS011;11312;51.464;6.968;2023-02-23T00:46:25;12.10;;;4.40;;
22287;SDS011;11312;51.464;6.968;2023-02-23T00:48:53;9.52;;;4.47;;
22287;SDS011;11312;51.464;6.968;2023-02-23T00:51:21;6.38;;;3.05;;
22287;SDS011;11312;51.464;6.968;2023-02-23T00:53:48;8.32;;;3.30;;
22287;SDS011;11312;51.464;6.968;2023-02-23T00:56:17;8.88;;;3.55;;
22287;SDS011;11312;51.464;6.968;2023-02-23T00:58:42;11.15;;;4.47;;
22287;SDS011;11312;51.464;6.968;2023-02-23T01:01:09;9.00;;;3.70;;
22287;SDS011;11312;51.464;6.968;2023-02-23T01:03:37;9.45;;;3.30;;
22287;SDS011;11312;51.464;6.968;2023-02-23T01:06:04;10.63;;;3.80;;
22287;SDS011;11312;51.464;6.968;2023-02-23T01:08:33;12.95;;;5.50;;
22287;SDS011;11312;51.464;6.968;2023-02-23T01:11:10;11.23;;;4.88;;
22287;SDS011;11312;51.464;6.968;2023-02-23T01:13:39;11.10;;;4.22;;
22287;SDS011;11312;51.464;6.968;2023-02-23T01:16:06;11.43;;;5.32;;
22287;SDS011;11312;51.464;6.968;2023-02-23T01:18:34;10.23;;;4.32;;
22287;SDS011;11312;51.464;6.968;2023-02-23T01:21:02;8.70;;;3.90;;
22287;SDS011;11312;51.464;6.968;2023-02-23T01:23:29;11.63;;;4.70;;
22287;SDS011;11312;51.464;6.968;2023-02-23T01:25:56;8.27;;;3.67;;
22287;SDS011;11312;51.464;6.968;2023-02-23T01:28:21;11.35;;;3.83;;
22287;SDS011;11312;51.464;6.968;2023-02-23T01:30:47;9.82;;;3.50;;
22287;SDS011;11312;51.464;6.968;2023-02-23T01:33:13;7.15;;;3.00;;
22287;SDS011;11312;51.464;6.968;2023-02-23T01:35:39;10.73;;;5.18;;
22287;SDS011;11312;51.464;6.968;2023-02-23T01:38:04;10.35;;;4.80;;
22287;SDS011;11312;51.464;6.968;2023-02-23T01:40:30;11.77;;;4.07;;
22287;SDS011;11312;51.464;6.968;2023-02-23T01:43:16;10.98;;;4.32;;
22287;SDS011;11312;51.464;6.968;2023-02-23T01:45:50;12.02;;;5.18;;
22287;SDS011;11312;51.464;6.968;2023-02-23T01:48:25;12.13;;;5.05;;
22287;SDS011;11312;51.464;6.968;2023-02-23T01:51:07;9.70;;;4.05;;
22287;SDS011;11312;51.464;6.968;2023-02-23T01:53:37;10.55;;;4.03;;
22287;SDS011;11312;51.464;6.968;2023-02-23T01:56:17;9.90;;;4.07;;
22287;SDS011;11312;51.464;6.968;2023-02-23T01:58:46;9.80;;;4.35;;
22287;SDS011;11312;51.464;6.968;2023-02-23T02:01:17;11.00;;;3.40;;
22287;SDS011;11312;51.464;6.968;2023-02-23T02:03:50;9.18;;;3.20;;
22287;SDS011;11312;51.464;6.968;2023-02-23T02:06:23;12.32;;;3.78;;
22287;SDS011;11312;51.464;6.968;2023-02-23T02:08:54;9.52;;;3.60;;
22287;SDS011;11312;51.464;6.968;2023-02-23T02:11:23;9.93;;;3.92;;
22287;SDS011;11312;51.464;6.968;2023-02-23T02:14:16;8.85;;;3.90;;
22287;SDS011;11312;51.464;6.968;2023-02-23T02:37:10;10.15;;;4.05;;
22287;SDS011;11312;51.464;6.968;2023-02-23T02:43:10;16.77;;;5.40;;
22287;SDS011;11312;51.464;6.968;2023-02-23T02:48:22;11.48;;;4.82;;
22287;SDS011;11312;51.464;6.968;2023-02-23T02:57:01;10.35;;;4.75;;
22287;SDS011;11312;51.464;6.968;2023-02-23T02:59:28;15.55;;;5.90;;
22287;SDS011;11312;51.464;6.968;2023-02-23T03:02:18;10.07;;;4.55;;
22287;SDS011;11312;51.464;6.968;2023-02-23T03:05:11;8.23;;;3.38;;
22287;SDS011;11312;51.464;6.968;2023-02-23T03:08:13;8.80;;;3.60;;
22287;SDS011;11312;51.464;6.968;2023-02-23T03:11:10;10.95;;;4.20;;
22287;SDS011;11312;51.464;6.968;2023-02-23T03:26:39;16.85;;;4.88;;
22287;SDS011;11312;51.464;6.968;2023-02-23T03:32:50;10.45;;;4.30;;
22287;SDS011;11312;51.464;6.968;2023-02-23T03:38:39;12.38;;;4.90;;
22287;SDS011;11312;51.464;6.968;2023-02-23T03:41:39;9.30;;;3.97;;
22287;SDS011;11312;51.464;6.968;2023-02-23T03:44:30;15.77;;;5.22;;
22287;SDS011;11312;51.464;6.968;2023-02-23T03:47:19;14.45;;;4.63;;
22287;SDS011;11312;51.464;6.968;2023-02-23T03:50:08;8.70;;;3.88;;
22287;SDS011;11312;51.464;6.968;2023-02-23T03:52:58;11.70;;;5.47;;
22287;SDS011;11312;51.464;6.968;2023-02-23T03:55:47;11.93;;;4.80;;
22287;SDS011;11312;51.464;6.968;2023-02-23T03:58:37;9.63;;;4.38;;
22287;SDS011;11312;51.464;6.968;2023-02-23T04:01:24;11.10;;;4.53;;
22287;SDS011;11312;51.464;6.968;2023-02-23T04:04:10;13.15;;;4.07;;
22287;SDS011;11312;51.464;6.968;2023-02-23T04:06:55;21.65;;;6.80;;
22287;SDS011;11312;51.464;6.968;2023-02-23T04:09:41;11.30;;;5.10;;
22287;SDS011;11312;51.464;6.968;2023-02-23T04:15:19;10.10;;;4.45;;
22287;SDS011;11312;51.464;6.968;2023-02-23T04:17:51;10.77;;;5.45;;
22287;SDS011;11312;51.464;6.968;2023-02-23T04:20:18;10.73;;;4.57;;
22287;SDS011;11312;51.464;6.968;2023-02-23T04:22:44;15.80;;;4.88;;
22287;SDS011;11312;51.464;6.968;2023-02-23T04:25:10;13.93;;;5.25;;
22287;SDS011;11312;51.464;6.968;2023-02-23T04:27:37;13.55;;;5.60;;
22287;SDS011;11312;51.464;6.968;2023-02-23T04:30:03;25.75;;;5.20;;
22287;SDS011;11312;51.464;6.968;2023-02-23T04:32:30;13.10;;;4.93;;
22287;SDS011;11312;51.464;6.968;2023-02-23T04:34:56;10.13;;;4.18;;
22287;SDS011;11312;51.464;6.968;2023-02-23T04:37:21;9.15;;;3.60;;
22287;SDS011;11312;51.464;6.968;2023-02-23T04:39:47;12.02;;;4.93;;
22287;SDS011;11312;51.464;6.968;2023-02-23T04:42:14;10.80;;;4.90;;
22287;SDS011;11312;51.464;6.968;2023-02-23T04:44:41;17.60;;;7.25;;
22287;SDS011;11312;51.464;6.968;2023-02-23T04:47:07;11.73;;;5.32;;
22287;SDS011;11312;51.464;6.968;2023-02-23T04:49:32;14.48;;;6.53;;
22287;SDS011;11312;51.464;6.968;2023-02-23T04:51:58;11.52;;;5.05;;
22287;SDS011;11312;51.464;6.968;2023-02-23T04:54:24;16.25;;;5.88;;
22287;SDS011;11312;51.464;6.968;2023-02-23T04:56:50;9.98;;;4.03;;
22287;SDS011;11312;51.464;6.968;2023-02-23T04:59:16;11.50;;;5.03;;
22287;SDS011;11312;51.464;6.968;2023-02-23T05:01:42;8.38;;;3.60;;
22287;SDS011;11312;51.464;6.968;2023-02-23T05:04:08;10.43;;;4.35;;
22287;SDS011;11312;51.464;6.968;2023-02-23T05:06:34;16.80;;;5.45;;
22287;SDS011;11312;51.464;6.968;2023-02-23T05:09:00;10.60;;;4.40;;
22287;SDS011;11312;51.464;6.968;2023-02-23T05:11:27;17.00;;;5.70;;
22287;SDS011;11312;51.464;6.968;2023-02-23T05:13:53;16.67;;;6.15;;
22287;SDS011;11312;51.464;6.968;2023-02-23T05:16:19;12.88;;;4.82;;
22287;SDS011;11312;51.464;6.968;2023-02-23T05:18:45;10.50;;;4.43;;
22287;SDS011;11312;51.464;6.968;2023-02-23T05:21:11;10.60;;;5.22;;
22287;SDS011;11312;51.464;6.968;2023-02-23T05:23:37;10.05;;;4.68;;
22287;SDS011;11312;51.464;6.968;2023-02-23T05:26:04;11.63;;;5.35;;
22287;SDS011;11312;51.464;6.968;2023-02-23T05:28:32;12.82;;;6.35;;
22287;SDS011;11312;51.464;6.968;2023-02-23T05:30:58;11.20;;;4.78;;
22287;SDS011;11312;51.464;6.968;2023-02-23T05:33:24;12.10;;;5.22;;
22287;SDS011;11312;51.464;6.968;2023-02-23T05:35:51;10.25;;;4.30;;
22287;SDS011;11312;51.464;6.968;2023-02-23T05:38:17;13.05;;;5.75;;
22287;SDS011;11312;51.464;6.968;2023-02-23T05:40:43;10.90;;;4.82;;
22287;SDS011;11312;51.464;6.968;2023-02-23T05:43:09;12.68;;;4.95;;
22287;SDS011;11312;51.464;6.968;2023-02-23T05:45:38;11.85;;;5.20;;
22287;SDS011;11312;51.464;6.968;2023-02-23T05:48:05;12.30;;;5.30;;
22287;SDS011;11312;51.464;6.968;2023-02-23T05:50:32;9.43;;;4.50;;
22287;SDS011;11312;51.464;6.968;2023-02-23T05:52:57;9.25;;;3.47;;
22287;SDS011;11312;51.464;6.968;2023-02-23T05:55:23;14.18;;;6.30;;
22287;SDS011;11312;51.464;6.968;2023-02-23T05:57:49;13.00;;;5.45;;
22287;SDS011;11312;51.464;6.968;2023-02-23T06:00:15;11.75;;;5.03;;
22287;SDS011;11312;51.464;6.968;2023-02-23T06:02:42;15.07;;;6.50;;
22287;SDS011;11312;51.464;6.968;2023-02-23T06:05:08;12.95;;;5.63;;
22287;SDS011;11312;51.464;6.968;2023-02-23T06:07:35;16.75;;;5.45;;
22287;SDS011;11312;51.464;6.968;2023-02-23T06:10:01;11.82;;;4.75;;
22287;SDS011;11312;51.464;6.968;2023-02-23T06:12:27;13.23;;;5.50;;
22287;SDS011;11312;51.464;6.968;2023-02-23T06:14:53;15.88;;;5.90;;
22287;SDS011;11312;51.464;6.968;2023-02-23T06:17:18;11.45;;;5.60;;
22287;SDS011;11312;51.464;6.968;2023-02-23T06:19:44;11.50;;;4.65;;
22287;SDS011;11312;51.464;6.968;2023-02-23T06:22:10;11.43;;;5.68;;
22287;SDS011;11312;51.464;6.968;2023-02-23T06:24:35;11.75;;;5.32;;
22287;SDS011;11312;51.464;6.968;2023-02-23T06:27:01;14.27;;;5.90;;
22287;SDS011;11312;51.464;6.968;2023-02-23T06:29:27;8.00;;;3.58;;
22287;SDS011;11312;51.464;6.968;2023-02-23T06:31:52;12.07;;;4.85;;
22287;SDS011;11312;51.464;6.968;2023-02-23T06:34:18;12.80;;;5.72;;
22287;SDS011;11312;51.464;6.968;2023-02-23T06:36:43;11.73;;;5.28;;
22287;SDS011;11312;51.464;6.968;2023-02-23T06:39:10;10.65;;;5.07;;
22287;SDS011;11312;51.464;6.968;2023-02-23T06:41:36;11.65;;;5.22;;
22287;SDS011;11312;51.464;6.968;2023-02-23T06:44:02;12.73;;;5.40;;
22287;SDS011;11312;51.464;6.968;2023-02-23T06:46:28;13.95;;;5.03;;
22287;SDS011;11312;51.464;6.968;2023-02-23T06:48:55;13.00;;;4.60;;
22287;SDS011;11312;51.464;6.968;2023-02-23T06:51:21;14.55;;;6.35;;
22287;SDS011;11312;51.464;6.968;2023-02-23T06:53:47;8.68;;;3.63;;
22287;SDS011;11312;51.464;6.968;2023-02-23T06:56:13;12.05;;;3.95;;
22287;SDS011;11312;51.464;6.968;2023-02-23T06:58:39;13.68;;;5.65;;
22287;SDS011;11312;51.464;6.968;2023-02-23T07:01:07;10.95;;;4.57;;
22287;SDS011;11312;51.464;6.968;2023-02-23T07:03:34;10.70;;;4.72;;
22287;SDS011;11312;51.464;6.968;2023-02-23T07:05:59;9.48;;;3.72;;
22287;SDS011;11312;51.464;6.968;2023-02-23T07:08:25;13.98;;;7.05;;
22287;SDS011;11312;51.464;6.968;2023-02-23T07:10:51;14.82;;;6.20;;
22287;SDS011;11312;51.464;6.968;2023-02-23T07:13:16;13.23;;;4.80;;
22287;SDS011;11312;51.464;6.968;2023-02-23T07:15:44;15.80;;;5.53;;
22287;SDS011;11312;51.464;6.968;2023-02-23T07:18:09;14.55;;;6.40;;
22287;SDS011;11312;51.464;6.968;2023-02-23T07:20:35;11.20;;;5.07;;
22287;SDS011;11312;51.464;6.968;2023-02-23T07:23:01;16.02;;;6.22;;
22287;SDS011;11312;51.464;6.968;2023-02-23T07:25:27;14.10;;;7.53;;
22287;SDS011;11312;51.464;6.968;2023-02-23T07:27:52;10.50;;;4.18;;
22287;SDS011;11312;51.464;6.968;2023-02-23T07:30:18;9.13;;;4.35;;
22287;SDS011;11312;51.464;6.968;2023-02-23T07:32:48;14.20;;;4.65;;
22287;SDS011;11312;51.464;6.968;2023-02-23T07:35:14;12.90;;;6.38;;
22287;SDS011;11312;51.464;6.968;2023-02-23T07:37:40;16.40;;;4.20;;
22287;SDS011;11312;51.464;6.968;2023-02-23T07:40:06;10.25;;;4.97;;
22287;SDS011;11312;51.464;6.968;2023-02-23T07:42:32;26.63;;;5.15;;
22287;SDS011;11312;51.464;6.968;2023-02-23T07:44:58;11.18;;;4.85;;
22287;SDS011;11312;51.464;6.968;2023-02-23T07:47:24;15.00;;;5.80;;
22287;SDS011;11312;51.464;6.968;2023-02-23T07:49:55;17.48;;;5.55;;
22287;SDS011;11312;51.464;6.968;2023-02-23T07:52:22;11.82;;;4.40;;
22287;SDS011;11312;51.464;6.968;2023-02-23T07:54:48;13.60;;;6.55;;
22287;SDS011;11312;51.464;6.968;2023-02-23T07:57:14;8.80;;;3.97;;
22287;SDS011;11312;51.464;6.968;2023-02-23T07:59:39;12.10;;;4.85;;
22287;SDS011;11312;51.464;6.968;2023-02-23T08:02:05;11.55;;;4.50;;
22287;SDS011;11312;51.464;6.968;2023-02-23T08:04:31;12.00;;;4.63;;
22287;SDS011;11312;51.464;6.968;2023-02-23T08:06:56;10.05;;;3.95;;
22287;SDS011;11312;51.464;6.968;2023-02-23T08:09:22;12.57;;;5.95;;
22287;SDS011;11312;51.464;6.968;2023-02-23T08:11:48;10.95;;;5.68;;
22287;SDS011;11312;51.464;6.968;2023-02-23T08:14:13;13.43;;;4.63;;
22287;SDS011;11312;51.464;6.968;2023-02-23T08:16:39;11.68;;;3.97;;
22287;SDS011;11312;51.464;6.968;2023-02-23T08:19:04;14.02;;;5.55;;
22287;SDS011;11312;51.464;6.968;2023-02-23T08:21:30;16.55;;;5.30;;
22287;SDS011;11312;51.464;6.968;2023-02-23T08:23:56;12.95;;;5.35;;
22287;SDS011;11312;51.464;6.968;2023-02-23T08:26:22;14.73;;;6.47;;
22287;SDS011;11312;51.464;6.968;2023-02-23T08:28:49;13.38;;;4.93;;
22287;SDS011;11312;51.464;6.968;2023-02-23T08:31:15;10.43;;;4.85;;
22287;SDS011;11312;51.464;6.968;2023-02-23T08:33:43;13.25;;;6.25;;
22287;SDS011;11312;51.464;6.968;2023-02-23T08:36:08;11.82;;;5.63;;
22287;SDS011;11312;51.464;6.968;2023-02-23T08:38:34;9.65;;;4.65;;
22287;SDS011;11312;51.464;6.968;2023-02-23T08:41:03;12.93;;;4.40;;
22287;SDS011;11312;51.464;6.968;2023-02-23T08:43:29;9.75;;;3.60;;
22287;SDS011;11312;51.464;6.968;2023-02-23T08:45:55;11.13;;;5.00;;
22287;SDS011;11312;51.464;6.968;2023-02-23T08:48:20;12.52;;;5.13;;
22287;SDS011;11312;51.464;6.968;2023-02-23T08:50:47;10.32;;;4.20;;
22287;SDS011;11312;51.464;6.968;2023-02-23T08:53:14;10.27;;;4.30;;
22287;SDS011;11312;51.464;6.968;2023-02-23T08:55:43;10.27;;;4.47;;
22287;SDS011;11312;51.464;6.968;2023-02-23T08:58:08;13.18;;;5.72;;
22287;SDS011;11312;51.464;6.968;2023-02-23T09:00:37;11.63;;;4.93;;
22287;SDS011;11312;51.464;6.968;2023-02-23T09:03:03;10.82;;;3.60;;
22287;SDS011;11312;51.464;6.968;2023-02-23T09:05:30;10.38;;;4.03;;
22287;SDS011;11312;51.464;6.968;2023-02-23T09:07:56;9.93;;;4.22;;
22287;SDS011;11312;51.464;6.968;2023-02-23T09:10:22;10.07;;;4.15;;
22287;SDS011;11312;51.464;6.968;2023-02-23T09:12:51;10.05;;;4.38;;
22287;SDS011;11312;51.464;6.968;2023-02-23T09:15:17;10.23;;;4.43;;
22287;SDS011;11312;51.464;6.968;2023-02-23T09:17:43;6.78;;;2.70;;
22287;SDS011;11312;51.464;6.968;2023-02-23T09:20:11;8.00;;;3.15;;
22287;SDS011;11312;51.464;6.968;2023-02-23T09:22:42;10.35;;;3.70;;
22287;SDS011;11312;51.464;6.968;2023-02-23T09:25:09;8.32;;;3.47;;
22287;SDS011;11312;51.464;6.968;2023-02-23T09:27:36;11.05;;;4.35;;
22287;SDS011;11312;51.464;6.968;2023-02-23T09:30:02;8.75;;;4.32;;
22287;SDS011;11312;51.464;6.968;2023-02-23T09:32:28;7.97;;;3.25;;
22287;SDS011;11312;51.464;6.968;2023-02-23T09:34:54;9.90;;;4.00;;
22287;SDS011;11312;51.464;6.968;2023-02-23T09:37:20;7.75;;;2.90;;
22287;SDS011;11312;51.464;6.968;2023-02-23T09:39:45;7.90;;;3.60;;
22287;SDS011;11312;51.464;6.968;2023-02-23T09:50:45;7.22;;;2.83;;
22287;SDS011;11312;51.464;6.968;2023-02-23T09:55:47;15.77;;;3.70;;
22287;SDS011;11312;51.464;6.968;2023-02-23T09:58:19;10.00;;;3.92;;
22287;SDS011;11312;51.464;6.968;2023-02-23T10:00:50;7.97;;;3.10;;
22287;SDS011;11312;51.464;6.968;2023-02-23T10:03:29;14.13;;;4.25;;
22287;SDS011;11312;51.464;6.968;2023-02-23T10:05:59;8.20;;;3.10;;
22287;SDS011;11312;51.464;6.968;2023-02-23T10:08:40;7.80;;;3.30;;
22287;SDS011;11312;51.464;6.968;2023-02-23T10:13:53;7.28;;;3.13;;
22287;SDS011;11312;51.464;6.968;2023-02-23T10:16:33;8.43;;;3.38;;
22287;SDS011;11312;51.464;6.968;2023-02-23T10:21:40;6.55;;;2.75;;
22287;SDS011;11312;51.464;6.968;2023-02-23T10:24:11;8.30;;;3.20;;
22287;SDS011;11312;51.464;6.968;2023-02-23T10:27:01;8.40;;;3.47;;
22287;SDS011;11312;51.464;6.968;2023-02-23T10:29:34;8.45;;;3.25;;
22287;SDS011;11312;51.464;6.968;2023-02-23T10:32:05;7.20;;;3.38;;
22287;SDS011;11312;51.464;6.968;2023-02-23T10:34:53;10.63;;;3.47;;
22287;SDS011;11312;51.464;6.968;2023-02-23T10:37:20;9.88;;;4.63;;
22287;SDS011;11312;51.464;6.968;2023-02-23T10:39:48;10.63;;;4.78;;
22287;SDS011;11312;51.464;6.968;2023-02-23T10:42:16;11.32;;;3.67;;
22287;SDS011;11312;51.464;6.968;2023-02-23T10:44:46;11.10;;;4.47;;
22287;SDS011;11312;51.464;6.968;2023-02-23T10:47:15;10.95;;;4.05;;
22287;SDS011;11312;51.464;6.968;2023-02-23T10:49:47;7.00;;;3.00;;
22287;SDS011;11312;51.464;6.968;2023-02-23T10:52:17;9.65;;;3.30;;
22287;SDS011;11312;51.464;6.968;2023-02-23T10:54:51;7.43;;;3.10;;
22287;SDS011;11312;51.464;6.968;2023-02-23T10:57:25;8.43;;;4.07;;
22287;SDS011;11312;51.464;6.968;2023-02-23T11:00:00;8.00;;;2.65;;
22287;SDS011;11312;51.464;6.968;2023-02-23T11:02:44;7.75;;;3.83;;
22287;SDS011;11312;51.464;6.968;2023-02-23T11:05:28;7.80;;;3.28;;
22287;SDS011;11312;51.464;6.968;2023-02-23T11:08:17;7.22;;;3.22;;
22287;SDS011;11312;51.464;6.968;2023-02-23T11:11:05;7.82;;;3.55;;
22287;SDS011;11312;51.464;6.968;2023-02-23T11:13:43;8.18;;;3.15;;
22287;SDS011;11312;51.464;6.968;2023-02-23T11:16:20;10.05;;;3.13;;
22287;SDS011;11312;51.464;6.968;2023-02-23T11:19:00;10.45;;;3.88;;
22287;SDS011;11312;51.464;6.968;2023-02-23T11:21:29;5.22;;;2.28;;
22287;SDS011;11312;51.464;6.968;2023-02-23T11:24:18;9.27;;;3.60;;
22287;SDS011;11312;51.464;6.968;2023-02-23T11:26:49;14.85;;;3.97;;
22287;SDS011;11312;51.464;6.968;2023-02-23T11:31:57;9.77;;;2.92;;
22287;SDS011;11312;51.464;6.968;2023-02-23T11:34:42;10.73;;;4.13;;
22287;SDS011;11312;51.464;6.968;2023-02-23T11:37:18;10.05;;;4.65;;
22287;SDS011;11312;51.464;6.968;2023-02-23T11:40:29;9.20;;;3.20;;
22287;SDS011;11312;51.464;6.968;2023-02-23T11:42:49;6.00;;;2.65;;
22287;SDS011;11312;51.464;6.968;2023-02-23T11:45:18;5.53;;;2.40;;
22287;SDS011;11312;51.464;6.968;2023-02-23T11:47:45;8.10;;;3.33;;
22287;SDS011;11312;51.464;6.968;2023-02-23T11:50:33;5.97;;;2.75;;
22287;SDS011;11312;51.464;6.968;2023-02-23T11:53:11;12.00;;;3.05;;
22287;SDS011;11312;51.464;6.968;2023-02-23T11:55:39;7.82;;;3.40;;
22287;SDS011;11312;51.464;6.968;2023-02-23T12:01:02;5.75;;;2.53;;
22287;SDS011;11312;51.464;6.968;2023-02-23T12:03:36;6.10;;;2.63;;
22287;SDS011;11312;51.464;6.968;2023-02-23T12:06:08;6.57;;;2.80;;
22287;SDS011;11312;51.464;6.968;2023-02-23T12:08:47;9.52;;;4.15;;
22287;SDS011;11312;51.464;6.968;2023-02-23T12:11:23;12.43;;;4.45;;
22287;SDS011;11312;51.464;6.968;2023-02-23T12:14:11;11.10;;;4.40;;
22287;SDS011;11312;51.464;6.968;2023-02-23T12:17:03;6.53;;;2.83;;
22287;SDS011;11312;51.464;6.968;2023-02-23T12:19:39;5.90;;;2.60;;
22287;SDS011;11312;51.464;6.968;2023-02-23T12:22:14;4.85;;;2.20;;
22287;SDS011;11312;51.464;6.968;2023-02-23T12:27:35;9.65;;;3.92;;
22287;SDS011;11312;51.464;6.968;2023-02-23T12:38:58;8.50;;;2.85;;
22287;SDS011;11312;51.464;6.968;2023-02-23T12:41:35;7.10;;;2.95;;
22287;SDS011;11312;51.464;6.968;2023-02-23T12:46:58;10.48;;;3.65;;
22287;SDS011;11312;51.464;6.968;2023-02-23T12:49:34;8.52;;;2.65;;
22287;SDS011;11312;51.464;6.968;2023-02-23T12:54:38;7.68;;;3.17;;
22287;SDS011;11312;51.464;6.968;2023-02-23T13:05:18;7.45;;;3.53;;
22287;SDS011;11312;51.464;6.968;2023-02-23T13:23:40;6.72;;;2.78;;
22287;SDS011;11312;51.464;6.968;2023-02-23T13:26:29;6.93;;;2.92;;
22287;SDS011;11312;51.464;6.968;2023-02-23T13:32:02;6.93;;;3.17;;
22287;SDS011;11312;51.464;6.968;2023-02-23T13:34:33;4.57;;;2.08;;
22287;SDS011;11312;51.464;6.968;2023-02-23T13:37:04;9.40;;;3.90;;
22287;SDS011;11312;51.464;6.968;2023-02-23T13:42:46;5.63;;;2.38;;
22287;SDS011;11312;51.464;6.968;2023-02-23T13:50:41;5.07;;;2.13;;
22287;SDS011;11312;51.464;6.968;2023-02-23T13:53:59;7.10;;;3.75;;
22287;SDS011;11312;51.464;6.968;2023-02-23T13:56:08;7.15;;;2.78;;
22287;SDS011;11312;51.464;6.968;2023-02-23T13:58:43;8.30;;;3.17;;
22287;SDS011;11312;51.464;6.968;2023-02-23T14:01:16;10.52;;;2.72;;
22287;SDS011;11312;51.464;6.968;2023-02-23T14:03:48;5.47;;;2.28;;
22287;SDS011;11312;51.464;6.968;2023-02-23T14:06:18;7.05;;;2.83;;
22287;SDS011;11312;51.464;6.968;2023-02-23T14:08:50;8.20;;;3.38;;
22287;SDS011;11312;51.464;6.968;2023-02-23T14:11:36;7.03;;;3.45;;
22287;SDS011;11312;51.464;6.968;2023-02-23T14:14:10;10.05;;;2.83;;
22287;SDS011;11312;51.464;6.968;2023-02-23T14:16:40;7.07;;;2.85;;
22287;SDS011;11312;51.464;6.968;2023-02-23T14:19:29;9.90;;;3.75;;
22287;SDS011;11312;51.464;6.968;2023-02-23T14:22:01;5.97;;;2.42;;
22287;SDS011;11312;51.464;6.968;2023-02-23T14:24:34;7.15;;;2.80;;
22287;SDS011;11312;51.464;6.968;2023-02-23T14:29:28;5.25;;;2.20;;
22287;SDS011;11312;51.464;6.968;2023-02-23T14:37:26;6.38;;;2.40;;
22287;SDS011;11312;51.464;6.968;2023-02-23T14:40:09;7.65;;;2.60;;
22287;SDS011;11312;51.464;6.968;2023-02-23T14:42:41;5.32;;;2.22;;
22287;SDS011;11312;51.464;6.968;2023-02-23T14:45:23;4.65;;;2.15;;
22287;SDS011;11312;51.464;6.968;2023-02-23T14:48:10;7.30;;;2.60;;
22287;SDS011;11312;51.464;6.968;2023-02-23T14:50:37;5.97;;;2.53;;
22287;SDS011;11312;51.464;6.968;2023-02-23T14:53:05;19.85;;;4.05;;
22287;SDS011;11312;51.464;6.968;2023-02-23T14:55:39;5.82;;;2.80;;
22287;SDS011;11312;51.464;6.968;2023-02-23T15:01:02;6.28;;;2.60;;
22287;SDS011;11312;51.464;6.968;2023-02-23T15:03:27;8.98;;;3.17;;
22287;SDS011;11312;51.464;6.968;2023-02-23T15:06:00;7.30;;;3.53;;
22287;SDS011;11312;51.464;6.968;2023-02-23T15:08:27;6.57;;;2.80;;
22287;SDS011;11312;51.464;6.968;2023-02-23T15:11:06;6.65;;;2.78;;
22287;SDS011;11312;51.464;6.968;2023-02-23T15:13:37;6.93;;;2.95;;
22287;SDS011;11312;51.464;6.968;2023-02-23T15:16:12;10.75;;;2.95;;
22287;SDS011;11312;51.464;6.968;2023-02-23T15:18:42;6.93;;;2.75;;
22287;SDS011;11312;51.464;6.968;2023-02-23T15:21:15;8.20;;;3.05;;
22287;SDS011;11312;51.464;6.968;2023-02-23T15:23:44;7.22;;;3.05;;
22287;SDS011;11312;51.464;6.968;2023-02-23T15:26:16;5.22;;;2.25;;
22287;SDS011;11312;51.464;6.968;2023-02-23T15:29:17;8.38;;;3.45;;
22287;SDS011;11312;51.464;6.968;2023-02-23T15:31:43;6.97;;;3.10;;
22287;SDS011;11312;51.464;6.968;2023-02-23T15:34:18;7.15;;;3.17;;
22287;SDS011;11312;51.464;6.968;2023-02-23T15:36:53;8.82;;;3.15;;
22287;SDS011;11312;51.464;6.968;2023-02-23T15:40:04;6.22;;;2.90;;
22287;SDS011;11312;51.464;6.968;2023-02-23T15:42:18;4.40;;;2.03;;
22287;SDS011;11312;51.464;6.968;2023-02-23T15:44:55;7.43;;;3.17;;
22287;SDS011;11312;51.464;6.968;2023-02-23T15:47:27;6.53;;;2.75;;
22287;SDS011;11312;51.464;6.968;2023-02-23T15:50:06;11.25;;;3.58;;
22287;SDS011;11312;51.464;6.968;2023-02-23T15:52:44;7.65;;;3.33;;
22287;SDS011;11312;51.464;6.968;2023-02-23T15:55:14;6.20;;;2.60;;
22287;SDS011;11312;51.464;6.968;2023-02-23T15:57:51;6.20;;;2.65;;
22287;SDS011;11312;51.464;6.968;2023-02-23T16:00:20;10.38;;;2.97;;
22287;SDS011;11312;51.464;6.968;2023-02-23T16:03:03;8.90;;;3.38;;
22287;SDS011;11312;51.464;6.968;2023-02-23T16:05:31;5.60;;;2.35;;
22287;SDS011;11312;51.464;6.968;2023-02-23T16:08:04;6.43;;;2.47;;
22287;SDS011;11312;51.464;6.968;2023-02-23T16:10:38;6.40;;;2.95;;
22287;SDS011;11312;51.464;6.968;2023-02-23T16:13:09;5.53;;;2.33;;
22287;SDS011;11312;51.464;6.968;2023-02-23T16:15:38;4.05;;;1.88;;
22287;SDS011;11312;51.464;6.968;2023-02-23T16:18:05;5.63;;;2.25;;
22287;SDS011;11312;51.464;6.968;2023-02-23T16:20:50;2.55;;;1.48;;
22287;SDS011;11312;51.464;6.968;2023-02-23T16:23:26;7.93;;;3.17;;
22287;SDS011;11312;51.464;6.968;2023-02-23T16:25:55;10.85;;;2.75;;
22287;SDS011;11312;51.464;6.968;2023-02-23T16:28:31;10.70;;;3.65;;
22287;SDS011;11312;51.464;6.968;2023-02-23T16:33:28;10.25;;;4.07;;
22287;SDS011;11312;51.464;6.968;2023-02-23T16:38:37;9.00;;;2.25;;
22287;SDS011;11312;51.464;6.968;2023-02-23T16:41:09;6.45;;;2.55;;
22287;SDS011;11312;51.464;6.968;2023-02-23T16:43:40;10.55;;;2.85;;
22287;SDS011;11312;51.464;6.968;2023-02-23T16:46:06;5.43;;;2.53;;
22287;SDS011;11312;51.464;6.968;2023-02-23T16:48:32;6.75;;;2.88;;
22287;SDS011;11312;51.464;6.968;2023-02-23T16:50:57;5.93;;;2.35;;
22287;SDS011;11312;51.464;6.968;2023-02-23T16:53:23;9.55;;;2.83;;
22287;SDS011;11312;51.464;6.968;2023-02-23T16:55:52;5.57;;;2.47;;
22287;SDS011;11312;51.464;6.968;2023-02-23T16:58:20;7.40;;;2.47;;
22287;SDS011;11312;51.464;6.968;2023-02-23T17:00:48;5.15;;;2.45;;
22287;SDS011;11312;51.464;6.968;2023-02-23T17:03:16;9.10;;;2.72;;
22287;SDS011;11312;51.464;6.968;2023-02-23T17:05:53;5.10;;;2.75;;
22287;SDS011;11312;51.464;6.968;2023-02-23T17:08:20;4.97;;;2.13;;
22287;SDS011;11312;51.464;6.968;2023-02-23T17:10:46;6.10;;;2.30;;
22287;SDS011;11312;51.464;6.968;2023-02-23T17:13:17;5.20;;;2.40;;
22287;SDS011;11312;51.464;6.968;2023-02-23T17:15:48;5.15;;;2.22;;
22287;SDS011;11312;51.464;6.968;2023-02-23T17:18:18;4.90;;;2.20;;
22287;SDS011;11312;51.464;6.968;2023-02-23T17:20:47;2.97;;;1.65;;
22287;SDS011;11312;51.464;6.968;2023-02-23T17:23:13;4.45;;;1.92;;
22287;SDS011;11312;51.464;6.968;2023-02-23T17:25:39;6.38;;;2.92;;
22287;SDS011;11312;51.464;6.968;2023-02-23T17:28:05;5.63;;;2.38;;
22287;SDS011;11312;51.464;6.968;2023-02-23T17:30:31;5.38;;;2.00;;
22287;SDS011;11312;51.464;6.968;2023-02-23T17:32:57;5.45;;;2.05;;